Time;durP1;ratioP1;P1;durP2;ratioP2;P2;SDS_P1;SDS_P2;PMS_P1;PMS_P2;Temp;Humidity;BMP_temperature;BMP_pressure;BME280_temperature;BME280_humidity;BME280_pressure;Samples;Min_cycle;Max_cycle;Signal;HPM_P1;HPM_P2
2022/08/04 00:00:08;;;;;;;10.40;10.10;;;23.40;99.90;;;;;;5087214;28;20280;-79
2022/08/04 00:02:54;;;;;;;10.10;9.80;;;23.30;99.90;;;;;;5088257;28;20240;-79
2022/08/04 00:08:32;;;;;;;10.00;9.70;;;23.20;99.90;;;;;;5074189;28;20240;-79
2022/08/04 00:11:07;;;;;;;10.07;9.77;;;23.10;99.90;;;;;;5090228;28;20249;-79
2022/08/04 00:13:39;;;;;;;10.05;9.75;;;23.00;99.90;;;;;;5089576;28;20265;-79
2022/08/04 00:16:13;;;;;;;9.95;9.65;;;23.00;99.90;;;;;;5088581;28;20321;-78
2022/08/04 00:18:45;;;;;;;9.90;9.60;;;23.00;99.90;;;;;;5091980;28;20245;-79
2022/08/04 00:21:16;;;;;;;10.20;9.90;;;22.90;99.90;;;;;;5091290;28;20218;-79
2022/08/04 00:23:51;;;;;;;10.05;9.75;;;22.90;99.90;;;;;;5090222;28;20320;-79
2022/08/04 00:26:20;;;;;;;10.10;9.80;;;22.80;99.90;;;;;;5088101;28;20256;-79
2022/08/04 00:28:49;;;;;;;9.90;9.60;;;22.80;99.90;;;;;;5087575;28;20237;-79
2022/08/04 00:31:29;;;;;;;9.98;9.68;;;22.70;99.90;;;;;;5087985;28;20229;-78
2022/08/04 00:33:57;;;;;;;9.88;9.57;;;22.60;99.90;;;;;;5087382;28;20234;-79
2022/08/04 00:36:27;;;;;;;10.10;9.80;;;22.60;99.90;;;;;;5086924;28;20231;-79
2022/08/04 00:38:55;;;;;;;9.98;9.68;;;22.50;99.90;;;;;;5086729;28;20298;-79
2022/08/04 00:41:43;;;;;;;9.70;9.40;;;22.50;99.90;;;;;;5086771;28;20264;-79
2022/08/04 00:44:30;;;;;;;9.70;9.40;;;22.50;99.90;;;;;;5085464;28;20241;-79
2022/08/04 00:47:28;;;;;;;9.55;9.25;;;22.40;99.90;;;;;;5087069;28;20234;-79
2022/08/04 00:50:06;;;;;;;9.77;9.48;;;22.40;99.90;;;;;;5086535;28;20261;-79
2022/08/04 00:53:01;;;;;;;9.73;9.43;;;22.30;99.90;;;;;;5086719;28;20232;-79
2022/08/04 00:55:50;;;;;;;9.90;9.60;;;22.30;99.90;;;;;;5085993;28;20222;-79
2022/08/04 00:58:45;;;;;;;9.88;9.57;;;22.20;99.90;;;;;;5085773;28;20298;-79
2022/08/04 01:01:33;;;;;;;9.90;9.60;;;22.20;99.90;;;;;;5086217;28;20226;-79
2022/08/04 01:04:10;;;;;;;9.98;9.68;;;22.10;99.90;;;;;;5085950;28;20218;-79
2022/08/04 01:06:48;;;;;;;9.70;9.40;;;22.10;99.90;;;;;;5085711;28;20297;-79
2022/08/04 01:09:45;;;;;;;9.90;9.60;;;22.00;99.90;;;;;;5085881;28;20257;-79
2022/08/04 01:12:42;;;;;;;10.00;9.70;;;22.00;99.90;;;;;;5085505;28;20238;-78
2022/08/04 01:15:27;;;;;;;9.82;9.52;;;22.00;99.90;;;;;;5084896;28;20318;-79
2022/08/04 01:18:14;;;;;;;9.80;9.50;;;21.90;99.90;;;;;;5085299;28;20268;-79
2022/08/04 01:21:02;;;;;;;9.73;9.43;;;21.90;99.90;;;;;;5086366;28;20289;-79
2022/08/04 01:24:14;;;;;;;9.85;9.55;;;21.90;99.90;;;;;;5091575;28;20257;-79
2022/08/04 01:26:53;;;;;;;9.80;9.50;;;21.80;99.90;;;;;;5049407;28;20226;-79
2022/08/04 01:29:24;;;;;;;9.70;9.40;;;21.70;99.90;;;;;;5086692;28;20234;-79
2022/08/04 01:32:10;;;;;;;9.80;9.50;;;21.70;99.90;;;;;;5086038;28;20296;-79
2022/08/04 01:34:48;;;;;;;9.60;9.30;;;21.70;99.90;;;;;;5085178;28;20272;-79
2022/08/04 01:37:35;;;;;;;9.80;9.50;;;21.60;99.90;;;;;;5085690;28;20226;-79
2022/08/04 01:40:07;;;;;;;9.82;9.52;;;21.60;99.90;;;;;;5085605;28;20269;-79
2022/08/04 01:42:45;;;;;;;9.80;9.50;;;21.60;99.90;;;;;;5084942;28;20252;-79
2022/08/04 01:45:20;;;;;;;9.50;9.20;;;21.60;99.90;;;;;;5085028;28;20216;-79
2022/08/04 01:47:52;;;;;;;9.60;9.30;;;21.50;99.90;;;;;;5085580;28;20234;-79
2022/08/04 01:50:21;;;;;;;10.00;9.70;;;21.50;99.90;;;;;;5086429;28;20288;-79
2022/08/04 01:52:49;;;;;;;9.60;9.30;;;21.50;99.90;;;;;;5091693;28;20252;-79
2022/08/04 01:55:17;;;;;;;9.48;9.18;;;21.50;99.90;;;;;;5089803;28;20244;-79
2022/08/04 01:57:47;;;;;;;9.70;9.40;;;21.50;99.90;;;;;;5087375;28;20218;-79
2022/08/04 02:00:26;;;;;;;9.77;9.48;;;21.40;99.90;;;;;;5087903;28;20300;-79
2022/08/04 02:02:54;;;;;;;9.65;9.35;;;21.40;99.90;;;;;;5087451;28;20366;-79
2022/08/04 02:05:24;;;;;;;9.50;9.20;;;21.40;99.90;;;;;;5087128;28;20245;-79
2022/08/04 02:08:14;;;;;;;9.52;9.23;;;21.30;99.90;;;;;;5087179;28;20277;-79
2022/08/04 02:10:58;;;;;;;9.70;9.40;;;21.30;99.90;;;;;;5086060;28;20295;-79
2022/08/04 02:13:37;;;;;;;9.60;9.30;;;21.20;99.90;;;;;;5085531;28;20245;-79
2022/08/04 02:16:25;;;;;;;9.77;9.48;;;21.20;99.90;;;;;;5086104;28;20265;-79
2022/08/04 02:19:02;;;;;;;9.70;9.40;;;21.10;99.90;;;;;;5088326;28;20253;-79
2022/08/04 02:21:32;;;;;;;9.43;9.13;;;21.10;99.90;;;;;;5088186;28;20289;-79
2022/08/04 02:24:10;;;;;;;9.70;9.40;;;21.00;99.90;;;;;;5085346;28;20270;-79
2022/08/04 02:26:42;;;;;;;9.40;9.10;;;21.00;99.90;;;;;;5084919;28;20230;-79
2022/08/04 02:29:17;;;;;;;9.70;9.40;;;21.00;99.90;;;;;;5084907;28;20234;-79
2022/08/04 02:31:57;;;;;;;9.70;9.40;;;20.90;99.90;;;;;;5084420;28;20253;-79
2022/08/04 02:34:34;;;;;;;9.68;9.38;;;20.90;99.90;;;;;;5084746;28;20240;-79
2022/08/04 02:37:04;;;;;;;9.70;9.40;;;20.90;99.90;;;;;;5085143;28;20264;-79
2022/08/04 02:39:44;;;;;;;9.18;8.90;;;20.80;99.90;;;;;;5084172;28;20226;-79
2022/08/04 02:42:13;;;;;;;9.23;8.93;;;20.80;99.90;;;;;;5083246;28;20307;-78
2022/08/04 02:44:41;;;;;;;9.00;8.80;;;20.70;99.90;;;;;;5083413;28;20269;-78
2022/08/04 02:47:12;;;;;;;9.40;9.10;;;20.70;99.90;;;;;;5083879;28;20241;-79
2022/08/04 02:52:27;;;;;;;9.02;8.82;;;20.60;99.90;;;;;;5082295;28;20238;-79
2022/08/04 02:54:57;;;;;;;9.32;9.02;;;20.50;99.90;;;;;;5084033;28;20241;-79
2022/08/04 03:00:14;;;;;;;8.90;8.70;;;20.50;99.90;;;;;;5083078;28;20225;-79
2022/08/04 03:03:03;;;;;;;9.20;8.90;;;20.40;99.90;;;;;;5084503;28;20233;-79
2022/08/04 03:05:58;;;;;;;9.10;8.90;;;20.40;99.90;;;;;;5083199;28;20261;-79
2022/08/04 03:12:44;;;;;;;9.13;8.90;;;20.40;99.90;;;;;;5080790;28;20226;-78
2022/08/04 03:15:47;;;;;;;9.60;9.30;;;20.40;99.90;;;;;;5086444;28;20253;-79
2022/08/04 03:19:09;;;;;;;9.20;8.93;;;20.30;99.90;;;;;;5087284;28;20264;-78
2022/08/04 03:22:42;;;;;;;9.02;8.82;;;20.20;99.90;;;;;;5086732;28;20231;-78
2022/08/04 03:25:45;;;;;;;10.13;9.82;;;20.10;99.90;;;;;;5073935;28;20260;-78
2022/08/04 03:29:05;;;;;;;10.20;9.90;;;20.10;99.90;;;;;;5085340;28;20325;-78
2022/08/04 03:32:27;;;;;;;10.30;10.00;;;20.00;99.90;;;;;;5059665;28;20301;-79
2022/08/04 03:35:16;;;;;;;10.40;10.10;;;19.90;99.90;;;;;;5086323;28;20264;-78
2022/08/04 03:38:46;;;;;;;10.25;9.95;;;19.90;99.90;;;;;;5088148;28;20233;-78
2022/08/04 03:42:08;;;;;;;10.40;10.10;;;19.90;99.90;;;;;;5062997;28;20238;-78
2022/08/04 03:45:30;;;;;;;10.85;10.55;;;19.90;99.90;;;;;;5122812;22;20260;-80
2022/08/04 03:48:33;;;;;;;10.60;10.30;;;19.80;99.90;;;;;;5090458;28;20628;-81
2022/08/04 03:54:52;;;;;;;10.40;10.10;;;19.70;99.90;;;;;;5112956;28;20221;-79
2022/08/04 03:58:06;;;;;;;10.43;10.13;;;19.70;99.90;;;;;;5104803;28;20253;-81
2022/08/04 04:00:46;;;;;;;10.35;10.05;;;19.70;99.90;;;;;;5104645;28;20320;-79
2022/08/04 04:03:49;;;;;;;10.30;10.00;;;19.70;99.90;;;;;;5104657;28;20221;-80
2022/08/04 04:07:02;;;;;;;10.10;9.80;;;19.70;99.90;;;;;;5104790;28;20240;-79
2022/08/04 04:10:08;;;;;;;10.40;10.10;;;19.70;99.90;;;;;;5087899;28;20264;-79
2022/08/04 04:13:12;;;;;;;10.00;9.70;;;19.70;99.90;;;;;;5103632;28;20240;-80
2022/08/04 04:16:07;;;;;;;10.10;9.80;;;19.70;99.90;;;;;;5096718;28;20221;-80
2022/08/04 04:18:54;;;;;;;10.50;10.20;;;19.70;99.90;;;;;;5084263;28;20325;-80
2022/08/04 04:21:41;;;;;;;10.20;9.90;;;19.70;99.90;;;;;;5084954;28;20218;-80
2022/08/04 04:25:12;;;;;;;10.30;10.00;;;19.70;99.90;;;;;;5089814;28;20250;-80
2022/08/04 04:27:59;;;;;;;10.32;10.02;;;19.80;99.90;;;;;;5091666;28;20230;-80
2022/08/04 04:30:36;;;;;;;10.50;10.20;;;19.80;99.90;;;;;;5095268;28;20698;-80
2022/08/04 04:33:33;;;;;;;10.40;10.10;;;19.80;99.90;;;;;;5109536;28;20244;-79
2022/08/04 04:36:12;;;;;;;10.27;9.98;;;19.80;99.90;;;;;;5109139;28;20225;-80
2022/08/04 04:39:06;;;;;;;10.38;10.07;;;19.90;99.90;;;;;;5108879;28;20310;-81
2022/08/04 04:42:14;;;;;;;10.60;10.30;;;19.90;99.90;;;;;;5110929;28;20237;-81
2022/08/04 04:45:16;;;;;;;10.30;10.00;;;19.90;99.90;;;;;;5114267;28;20300;-81
2022/08/04 04:47:56;;;;;;;10.20;9.90;;;19.90;99.90;;;;;;5118089;28;20288;-82
2022/08/04 04:50:36;;;;;;;10.43;10.13;;;20.00;99.90;;;;;;5116733;28;20276;-80
2022/08/04 04:53:14;;;;;;;10.40;10.10;;;20.00;99.90;;;;;;5116110;28;20234;-81
2022/08/04 04:55:46;;;;;;;10.05;9.75;;;20.10;99.90;;;;;;5117918;28;20292;-79
2022/08/04 04:58:20;;;;;;;10.07;9.77;;;20.10;99.90;;;;;;5119718;28;20228;-80
2022/08/04 05:01:15;;;;;;;10.55;10.25;;;20.20;99.90;;;;;;5121723;28;20247;-79
2022/08/04 05:04:24;;;;;;;10.40;10.10;;;20.30;99.90;;;;;;5118785;28;20226;-81
2022/08/04 05:07:23;;;;;;;10.15;9.85;;;20.40;99.90;;;;;;5099162;28;20248;-80
2022/08/04 05:10:03;;;;;;;10.15;9.85;;;20.50;99.90;;;;;;5114789;28;20249;-80
2022/08/04 05:13:10;;;;;;;10.50;10.20;;;20.60;99.90;;;;;;5104127;28;20228;-81
2022/08/04 05:15:47;;;;;;;10.43;10.13;;;20.70;99.90;;;;;;5101515;28;20308;-80
2022/08/04 05:18:26;;;;;;;10.60;10.30;;;20.80;99.90;;;;;;5104018;28;20221;-81
2022/08/04 05:21:04;;;;;;;10.80;10.50;;;20.90;99.90;;;;;;5104167;28;20265;-80
2022/08/04 05:23:34;;;;;;;10.68;10.38;;;21.00;99.90;;;;;;5103737;28;20272;-80
2022/08/04 05:26:08;;;;;;;10.50;10.20;;;21.20;99.90;;;;;;5118863;28;20233;-80
2022/08/04 05:28:46;;;;;;;10.70;10.40;;;21.30;99.90;;;;;;5110682;28;20240;-81
2022/08/04 05:31:20;;;;;;;10.60;10.30;;;21.40;99.90;;;;;;5105928;28;20213;-80
2022/08/04 05:33:53;;;;;;;10.80;10.50;;;21.50;99.90;;;;;;5105742;28;20225;-80
2022/08/04 05:36:27;;;;;;;10.85;10.55;;;21.60;99.90;;;;;;5105304;28;20270;-80
2022/08/04 05:38:58;;;;;;;10.75;10.45;;;21.80;99.90;;;;;;5104248;28;20283;-80
2022/08/04 05:41:28;;;;;;;10.57;10.27;;;21.90;99.90;;;;;;5104087;28;20229;-80
2022/08/04 05:43:56;;;;;;;10.65;10.35;;;22.00;99.90;;;;;;5103337;28;20264;-80
2022/08/04 05:46:31;;;;;;;10.85;10.55;;;22.10;99.90;;;;;;5103802;28;20229;-80
2022/08/04 05:48:58;;;;;;;11.57;11.17;;;22.10;99.90;;;;;;5103358;28;20408;-79
2022/08/04 05:51:27;;;;;;;11.20;10.90;;;22.20;99.90;;;;;;5106383;28;20312;-79
2022/08/04 05:53:55;;;;;;;11.00;10.70;;;22.30;99.90;;;;;;5106449;28;20229;-79
2022/08/04 05:56:24;;;;;;;11.20;10.90;;;22.50;99.90;;;;;;5104972;28;20320;-79
2022/08/04 05:58:53;;;;;;;11.18;10.88;;;22.60;99.90;;;;;;5106484;28;20289;-79
2022/08/04 06:01:22;;;;;;;11.52;11.13;;;22.70;99.90;;;;;;5106294;28;20217;-79
2022/08/04 06:03:51;;;;;;;11.45;11.05;;;22.80;99.90;;;;;;5105368;28;20225;-80
2022/08/04 06:06:21;;;;;;;11.57;11.18;;;22.90;99.90;;;;;;5104842;28;20233;-80
2022/08/04 06:08:49;;;;;;;11.50;11.10;;;23.00;99.90;;;;;;5104402;28;20264;-79
2022/08/04 06:11:19;;;;;;;11.13;10.82;;;23.10;99.90;;;;;;5104634;28;20316;-80
2022/08/04 06:13:53;;;;;;;11.35;11.00;;;23.20;99.90;;;;;;5104986;28;20233;-79
2022/08/04 06:16:25;;;;;;;11.10;10.80;;;23.40;99.90;;;;;;5104105;28;20229;-79
2022/08/04 06:18:57;;;;;;;10.98;10.68;;;23.50;99.90;;;;;;5104594;28;20330;-80
2022/08/04 06:21:28;;;;;;;11.10;10.80;;;23.60;99.90;;;;;;5104642;28;20217;-80
2022/08/04 06:23:57;;;;;;;11.02;10.73;;;23.80;99.90;;;;;;5104372;28;20214;-80
2022/08/04 06:26:28;;;;;;;11.20;10.90;;;23.90;99.90;;;;;;5103595;28;20303;-80
2022/08/04 06:28:57;;;;;;;11.45;11.05;;;24.00;99.90;;;;;;5104434;28;20298;-80
2022/08/04 06:31:42;;;;;;;11.80;11.40;;;24.20;99.90;;;;;;5103650;28;20320;-80
2022/08/04 06:34:14;;;;;;;11.77;11.38;;;24.30;99.90;;;;;;5104814;28;20229;-80
2022/08/04 06:36:44;;;;;;;11.57;11.18;;;24.40;99.90;;;;;;5101610;28;20230;-80
2022/08/04 06:39:18;;;;;;;11.57;11.18;;;24.70;99.90;;;;;;5103945;28;20206;-81
2022/08/04 06:41:46;;;;;;;11.30;11.00;;;24.80;99.90;;;;;;5105692;28;20214;-81
2022/08/04 06:44:16;;;;;;;11.15;10.85;;;25.00;99.90;;;;;;5094825;28;20292;-81
2022/08/04 06:46:46;;;;;;;11.63;11.23;;;25.10;99.90;;;;;;5086694;28;20254;-86
2022/08/04 06:49:23;;;;;;;11.52;11.13;;;25.30;99.90;;;;;;5086402;28;20349;-86
2022/08/04 06:51:53;;;;;;;11.57;11.18;;;25.40;99.90;;;;;;5085102;28;20225;-87
2022/08/04 06:54:25;;;;;;;11.40;11.02;;;25.60;99.90;;;;;;5083089;28;20237;-87
2022/08/04 06:56:56;;;;;;;11.50;11.10;;;25.60;99.90;;;;;;5083863;28;20354;-88
2022/08/04 06:59:26;;;;;;;11.57;11.18;;;25.80;99.90;;;;;;5084094;28;20256;-89
2022/08/04 07:01:55;;;;;;;11.70;11.30;;;25.80;99.90;;;;;;5082756;28;20226;-88
2022/08/04 07:04:25;;;;;;;11.80;11.40;;;26.00;99.90;;;;;;5094832;28;20244;-88
2022/08/04 07:06:53;;;;;;;11.68;11.27;;;26.10;99.90;;;;;;5102534;28;20229;-86
2022/08/04 07:09:21;;;;;;;11.80;11.40;;;26.30;99.90;;;;;;5104128;28;20237;-86
2022/08/04 07:11:52;;;;;;;11.70;11.30;;;26.50;99.90;;;;;;5084041;28;20234;-88
2022/08/04 07:14:20;;;;;;;11.70;11.30;;;26.60;99.90;;;;;;5082783;28;20230;-88
2022/08/04 07:16:50;;;;;;;11.65;11.25;;;26.70;99.90;;;;;;5083488;28;20349;-86
2022/08/04 07:19:19;;;;;;;11.90;11.50;;;26.80;99.90;;;;;;5087687;28;20240;-86
2022/08/04 07:21:57;;;;;;;11.98;11.57;;;27.00;99.90;;;;;;5085431;28;20242;-85
2022/08/04 07:24:38;;;;;;;11.60;11.20;;;27.10;99.90;;;;;;5087458;28;20232;-85
2022/08/04 07:27:07;;;;;;;11.90;11.50;;;27.10;99.90;;;;;;5087580;28;20317;-85
2022/08/04 07:29:36;;;;;;;11.30;11.00;;;27.30;99.90;;;;;;5084512;28;20245;-84
2022/08/04 07:32:05;;;;;;;11.30;11.00;;;27.40;99.90;;;;;;5083416;28;20298;-84
2022/08/04 07:34:34;;;;;;;11.30;11.00;;;27.50;99.90;;;;;;5083279;28;20301;-83
2022/08/04 07:37:08;;;;;;;11.20;10.90;;;27.60;99.90;;;;;;5082296;28;20230;-80
2022/08/04 07:39:39;;;;;;;11.38;11.07;;;27.70;99.90;;;;;;5084889;28;20322;-80
2022/08/04 07:42:11;;;;;;;11.10;10.80;;;27.90;99.90;;;;;;5084892;28;20230;-81
2022/08/04 07:44:40;;;;;;;11.27;10.98;;;28.00;99.90;;;;;;5084130;28;20421;-80
2022/08/04 07:47:09;;;;;;;11.40;11.10;;;28.20;99.90;;;;;;5086144;28;20261;-80
2022/08/04 07:49:37;;;;;;;11.07;10.77;;;28.30;99.90;;;;;;5086080;28;20230;-80
2022/08/04 07:52:08;;;;;;;11.15;10.85;;;28.40;99.90;;;;;;5081926;28;20321;-79
2022/08/04 07:54:37;;;;;;;11.18;10.88;;;28.50;99.90;;;;;;5083895;28;20242;-81
2022/08/04 07:57:07;;;;;;;11.02;10.73;;;28.60;99.90;;;;;;5103173;28;20284;-81
2022/08/04 07:59:36;;;;;;;11.18;10.88;;;28.70;99.90;;;;;;5108173;28;20269;-80
2022/08/04 08:02:04;;;;;;;11.55;11.15;;;28.90;99.90;;;;;;5106534;28;20233;-81
2022/08/04 08:04:34;;;;;;;11.63;11.23;;;29.00;99.90;;;;;;5104626;28;20285;-81
2022/08/04 08:07:06;;;;;;;11.40;11.10;;;29.20;99.90;;;;;;5105721;28;20264;-80
2022/08/04 08:09:35;;;;;;;11.55;11.18;;;29.30;99.90;;;;;;5084424;28;20234;-81
2022/08/04 08:12:04;;;;;;;11.50;11.10;;;29.40;99.90;;;;;;5101742;28;20233;-81
2022/08/04 08:14:33;;;;;;;11.63;11.23;;;29.60;99.90;;;;;;5096733;28;20236;-80
2022/08/04 08:17:04;;;;;;;11.57;11.18;;;29.70;99.90;;;;;;5103033;28;20280;-79
2022/08/04 08:19:32;;;;;;;11.65;11.25;;;29.90;99.90;;;;;;5102465;28;20225;-80
2022/08/04 08:22:01;;;;;;;11.50;11.10;;;29.90;99.90;;;;;;5101796;28;20232;-80
2022/08/04 08:24:30;;;;;;;11.52;11.15;;;30.00;99.90;;;;;;5105027;28;20229;-79
2022/08/04 08:27:00;;;;;;;11.50;11.10;;;30.10;99.90;;;;;;5105172;28;20237;-81
2022/08/04 08:29:29;;;;;;;11.30;11.00;;;30.20;99.90;;;;;;5105610;28;20260;-79
2022/08/04 08:31:59;;;;;;;11.20;10.90;;;30.30;99.90;;;;;;5106087;28;20233;-80
2022/08/04 08:34:27;;;;;;;11.60;11.23;;;30.40;99.90;;;;;;5105272;28;20293;-80
2022/08/04 08:37:08;;;;;;;11.25;10.95;;;30.50;99.90;;;;;;5106683;28;20287;-79
2022/08/04 08:39:41;;;;;;;11.00;10.70;;;30.60;99.90;;;;;;5105730;28;20243;-79
2022/08/04 08:43:00;;;;;;;11.10;10.80;;;30.70;99.90;;;;;;5088024;28;20226;-81
2022/08/04 08:45:54;;;;;;;11.00;10.70;;;30.80;99.90;;;;;;5073311;28;20210;-80
2022/08/04 08:49:09;;;;;;;11.07;10.77;;;30.90;99.90;;;;;;5106662;28;20222;-80
2022/08/04 08:52:13;;;;;;;11.10;10.80;;;31.00;99.90;;;;;;5093520;28;20264;-81
2022/08/04 08:55:17;;;;;;;11.20;10.90;;;31.10;99.90;;;;;;5099130;28;20237;-80
2022/08/04 08:58:05;;;;;;;11.20;10.90;;;31.40;99.90;;;;;;5096779;28;20213;-80
2022/08/04 09:00:47;;;;;;;11.45;11.05;;;31.50;99.90;;;;;;5086504;28;20244;-80
2022/08/04 09:03:47;;;;;;;11.48;11.07;;;31.70;99.90;;;;;;5087508;28;20241;-80
2022/08/04 09:06:44;;;;;;;11.13;10.82;;;32.00;99.90;;;;;;5107138;28;20265;-79
2022/08/04 09:09:49;;;;;;;11.60;11.20;;;32.20;99.90;;;;;;5117920;28;20226;-79
2022/08/04 09:12:27;;;;;;;11.50;11.10;;;32.20;99.90;;;;;;5102236;28;21929;-80
2022/08/04 09:15:04;;;;;;;11.30;11.00;;;32.30;99.90;;;;;;5109046;28;20315;-80
2022/08/04 09:17:42;;;;;;;11.65;11.25;;;32.40;99.90;;;;;;5098084;28;20232;-80
2022/08/04 09:20:21;;;;;;;11.68;11.27;;;32.60;99.90;;;;;;5107721;28;20197;-81
2022/08/04 09:22:56;;;;;;;11.48;11.07;;;32.90;99.90;;;;;;5116576;28;20206;-81
2022/08/04 09:25:31;;;;;;;11.57;11.18;;;33.10;99.90;;;;;;5117934;28;20304;-80
2022/08/04 09:28:05;;;;;;;11.68;11.27;;;33.20;99.90;;;;;;5108169;28;20222;-79
2022/08/04 09:30:46;;;;;;;11.52;11.13;;;33.30;99.90;;;;;;5097334;28;20253;-80
2022/08/04 09:33:24;;;;;;;11.65;11.25;;;33.20;99.90;;;;;;5098293;28;20254;-80
2022/08/04 09:36:00;;;;;;;11.50;11.10;;;33.20;99.90;;;;;;5096839;28;20261;-80
2022/08/04 09:38:40;;;;;;;11.48;11.07;;;33.30;99.90;;;;;;5097685;28;20236;-81
2022/08/04 09:41:21;;;;;;;11.45;11.07;;;33.60;99.90;;;;;;5100983;28;20265;-80
2022/08/04 09:44:02;;;;;;;11.60;11.20;;;33.80;99.90;;;;;;5114245;28;20245;-80
2022/08/04 09:46:39;;;;;;;11.25;10.95;;;34.00;99.90;;;;;;5110913;28;20251;-80
2022/08/04 09:49:16;;;;;;;11.68;11.27;;;34.00;99.90;;;;;;5110837;28;20221;-79
2022/08/04 09:52:01;;;;;;;11.60;11.20;;;34.00;99.90;;;;;;5103352;28;21064;-77
2022/08/04 09:54:44;;;;;;;11.02;10.73;;;33.90;99.90;;;;;;5097712;28;20229;-78
2022/08/04 10:00:07;;;;;;;11.57;11.20;;;34.20;99.90;;;;;;5089960;28;20222;-80
2022/08/04 10:02:41;;;;;;;11.38;11.07;;;34.40;99.90;;;;;;5090266;28;20238;-79
2022/08/04 10:05:16;;;;;;;11.60;11.20;;;34.60;99.90;;;;;;5090442;28;20225;-79
2022/08/04 10:08:15;;;;;;;11.20;10.90;;;34.80;99.90;;;;;;5097324;28;20232;-81
2022/08/04 10:10:52;;;;;;;11.40;11.10;;;34.90;99.90;;;;;;5097910;28;20289;-78
2022/08/04 10:13:32;;;;;;;11.32;11.02;;;34.70;99.90;;;;;;5092041;28;20214;-78
2022/08/04 10:16:35;;;;;;;11.70;11.30;;;34.70;99.90;;;;;;5094156;28;20312;-80
2022/08/04 10:19:27;;;;;;;11.85;11.45;;;34.90;99.90;;;;;;5094418;28;20245;-83
2022/08/04 10:22:12;;;;;;;11.68;11.27;;;35.10;99.90;;;;;;5098453;28;20242;-82
2022/08/04 10:24:58;;;;;;;11.70;11.30;;;35.20;99.90;;;;;;5090537;28;20240;-83
2022/08/04 10:27:33;;;;;;;11.90;11.50;;;35.10;99.90;;;;;;5110097;28;20233;-82
2022/08/04 10:30:10;;;;;;;11.82;11.43;;;35.00;99.90;;;;;;5109118;28;20237;-82
2022/08/04 10:32:46;;;;;;;11.88;11.48;;;35.00;99.90;;;;;;5108346;28;20216;-79
2022/08/04 10:35:31;;;;;;;11.88;11.48;;;35.10;99.90;;;;;;5104574;28;20258;-81
2022/08/04 10:38:12;;;;;;;12.30;11.90;;;35.40;99.90;;;;;;5102127;28;20415;-81
2022/08/04 10:40:45;;;;;;;11.80;11.40;;;35.80;99.90;;;;;;5103295;28;20217;-81
2022/08/04 10:43:27;;;;;;;11.95;11.55;;;36.10;99.60;;;;;;5103120;28;20259;-81
2022/08/04 10:46:00;;;;;;;11.73;11.32;;;36.20;99.80;;;;;;5102582;28;20277;-81
2022/08/04 10:48:39;;;;;;;11.48;11.07;;;36.20;99.90;;;;;;5102897;28;20225;-80
2022/08/04 10:51:21;;;;;;;11.43;11.07;;;36.40;97.40;;;;;;5104133;28;20293;-80
2022/08/04 10:53:59;;;;;;;11.13;10.82;;;36.40;98.60;;;;;;5101469;28;20235;-83
2022/08/04 10:56:38;;;;;;;11.23;10.93;;;36.70;99.70;;;;;;5100608;28;20252;-80
2022/08/04 10:59:13;;;;;;;11.23;10.93;;;36.90;98.80;;;;;;5101473;28;20228;-81
2022/08/04 11:01:45;;;;;;;11.35;11.02;;;37.10;97.60;;;;;;5098451;28;20275;-80
2022/08/04 11:04:24;;;;;;;11.20;10.90;;;36.80;97.20;;;;;;5080369;28;20244;-80
2022/08/04 11:06:54;;;;;;;11.18;10.88;;;36.70;97.70;;;;;;5080381;28;20302;-80
2022/08/04 11:09:23;;;;;;;11.30;11.00;;;37.00;97.20;;;;;;5091894;28;20233;-80
2022/08/04 11:11:56;;;;;;;11.48;11.13;;;37.30;96.50;;;;;;5095546;28;20317;-80
2022/08/04 11:14:33;;;;;;;11.40;11.00;;;37.50;96.50;;;;;;5082575;28;20244;-80
2022/08/04 11:17:07;;;;;;;11.75;11.35;;;37.60;96.70;;;;;;5097932;28;20237;-79
2022/08/04 11:19:49;;;;;;;11.60;11.20;;;37.60;95.40;;;;;;5083750;28;20234;-80
2022/08/04 11:22:26;;;;;;;11.63;11.23;;;37.80;93.80;;;;;;5099487;28;20233;-80
2022/08/04 11:25:05;;;;;;;11.60;11.20;;;37.70;94.90;;;;;;5087794;28;20305;-81
2022/08/04 11:27:43;;;;;;;11.80;11.40;;;37.80;93.90;;;;;;5080650;28;20226;-79
2022/08/04 11:30:13;;;;;;;11.70;11.30;;;37.50;94.40;;;;;;5083218;28;20297;-80
2022/08/04 11:32:50;;;;;;;11.90;11.50;;;37.40;94.20;;;;;;5082934;28;20265;-80
2022/08/04 11:35:29;;;;;;;11.70;11.30;;;37.60;93.60;;;;;;5081741;28;20242;-79
2022/08/04 11:38:07;;;;;;;11.55;11.15;;;37.90;93.80;;;;;;5083278;28;20289;-80
2022/08/04 11:40:43;;;;;;;11.20;10.90;;;37.80;94.50;;;;;;5084053;28;20240;-80
2022/08/04 11:43:18;;;;;;;11.75;11.35;;;37.80;93.90;;;;;;5082793;28;20320;-80
2022/08/04 11:45:55;;;;;;;11.55;11.15;;;37.80;93.00;;;;;;5083150;28;20240;-80
2022/08/04 11:48:30;;;;;;;11.60;11.20;;;37.90;92.90;;;;;;5083599;28;20252;-80
2022/08/04 11:51:01;;;;;;;11.65;11.25;;;37.80;92.40;;;;;;5083186;28;20226;-80
2022/08/04 11:53:32;;;;;;;11.30;11.00;;;37.80;92.50;;;;;;5083226;28;20265;-80
2022/08/04 11:56:03;;;;;;;11.52;11.13;;;37.90;92.90;;;;;;5082487;28;20218;-80
2022/08/04 11:58:31;;;;;;;11.43;11.10;;;38.00;92.70;;;;;;5090511;28;20312;-81
2022/08/04 12:01:09;;;;;;;11.30;11.00;;;38.20;92.20;;;;;;5086160;28;20238;-80
2022/08/04 12:03:49;;;;;;;11.30;11.00;;;38.40;91.70;;;;;;5093911;28;20236;-80
2022/08/04 12:06:24;;;;;;;11.00;10.70;;;38.80;92.50;;;;;;5079986;28;20281;-80
2022/08/04 12:09:10;;;;;;;11.07;10.77;;;38.80;92.50;;;;;;5090740;28;20261;-79
2022/08/04 12:12:03;;;;;;;11.32;11.02;;;39.10;91.10;;;;;;5089844;28;20239;-80
2022/08/04 12:14:44;;;;;;;11.30;11.00;;;39.50;90.90;;;;;;5095950;28;20268;-79
2022/08/04 12:17:17;;;;;;;11.38;11.07;;;39.90;90.60;;;;;;5100014;28;20237;-79
2022/08/04 12:19:51;;;;;;;11.65;11.25;;;40.30;89.90;;;;;;5101501;28;20256;-79
2022/08/04 12:22:24;;;;;;;11.40;11.10;;;40.60;89.80;;;;;;5101178;28;20339;-80
2022/08/04 12:25:00;;;;;;;11.68;11.27;;;40.80;88.20;;;;;;5100966;28;20245;-79
2022/08/04 12:27:35;;;;;;;11.75;11.35;;;40.90;87.00;;;;;;5101368;28;20235;-80
2022/08/04 12:30:05;;;;;;;11.70;11.30;;;40.60;88.50;;;;;;5102015;28;20220;-81
2022/08/04 12:32:41;;;;;;;11.73;11.32;;;40.50;88.10;;;;;;5101758;28;20300;-80
2022/08/04 12:35:19;;;;;;;11.73;11.32;;;40.30;87.70;;;;;;5100972;28;20232;-80
2022/08/04 12:38:01;;;;;;;11.82;11.43;;;40.10;86.40;;;;;;5101923;28;20213;-80
2022/08/04 12:40:37;;;;;;;11.90;11.50;;;40.00;88.90;;;;;;5101321;28;20278;-80
2022/08/04 12:43:23;;;;;;;11.88;11.48;;;40.10;87.60;;;;;;5103638;28;20236;-80
2022/08/04 12:45:54;;;;;;;11.68;11.27;;;40.10;87.40;;;;;;5100256;28;20229;-79
2022/08/04 12:48:23;;;;;;;11.75;11.35;;;40.20;88.00;;;;;;5088814;28;20214;-79
2022/08/04 12:50:53;;;;;;;11.60;11.20;;;40.20;86.80;;;;;;5080385;28;20226;-79
2022/08/04 12:53:27;;;;;;;11.70;11.30;;;40.30;87.90;;;;;;5079757;28;20233;-80
2022/08/04 12:55:58;;;;;;;11.55;11.15;;;40.70;84.80;;;;;;5080192;28;20230;-80
2022/08/04 12:58:29;;;;;;;11.60;11.20;;;41.20;87.60;;;;;;5091710;28;20267;-81
2022/08/04 13:01:02;;;;;;;11.90;11.50;;;41.80;85.80;;;;;;5108730;28;20212;-81
2022/08/04 13:03:39;;;;;;;11.90;11.50;;;41.70;82.50;;;;;;5086005;28;20263;-81
2022/08/04 13:06:09;;;;;;;11.95;11.55;;;41.50;84.00;;;;;;5080262;28;20296;-80
2022/08/04 13:08:40;;;;;;;11.60;11.20;;;41.60;84.80;;;;;;5080965;28;20249;-80
2022/08/04 13:11:11;;;;;;;11.80;11.40;;;41.70;84.00;;;;;;5080178;28;20324;-80
2022/08/04 13:13:40;;;;;;;11.52;11.13;;;41.50;83.90;;;;;;5080108;28;20228;-80
2022/08/04 13:16:09;;;;;;;12.05;11.65;;;41.60;82.70;;;;;;5079038;28;20236;-80
2022/08/04 13:18:41;;;;;;;12.07;11.68;;;42.00;82.10;;;;;;5079703;28;20225;-80
2022/08/04 13:21:14;;;;;;;12.07;11.68;;;42.50;81.60;;;;;;5079178;28;20233;-80
2022/08/04 13:23:45;;;;;;;11.98;11.57;;;42.70;82.20;;;;;;5079140;28;20328;-80
2022/08/04 13:26:15;;;;;;;11.50;11.20;;;42.90;81.90;;;;;;5079473;28;20237;-80
2022/08/04 13:28:46;;;;;;;11.30;11.00;;;43.20;80.00;;;;;;5079519;28;20264;-80
2022/08/04 13:31:17;;;;;;;11.30;11.00;;;43.00;80.80;;;;;;5079668;28;20233;-80
2022/08/04 13:33:48;;;;;;;11.38;11.07;;;42.80;78.80;;;;;;5080047;28;20251;-80
2022/08/04 13:36:19;;;;;;;11.48;11.18;;;42.50;79.90;;;;;;5087763;28;20374;-81
2022/08/04 13:38:52;;;;;;;11.50;11.20;;;42.20;78.70;;;;;;5092137;28;20240;-80
2022/08/04 13:41:22;;;;;;;11.30;11.00;;;42.10;79.40;;;;;;5093880;28;20221;-80
2022/08/04 13:43:55;;;;;;;11.75;11.38;;;42.50;81.00;;;;;;5098526;28;20309;-80
2022/08/04 13:46:27;;;;;;;11.25;10.95;;;42.80;79.00;;;;;;5094435;28;20323;-80
2022/08/04 13:48:56;;;;;;;11.27;10.98;;;42.80;79.20;;;;;;5089509;28;20216;-81